Time;durP1;ratioP1;P1;durP2;ratioP2;P2;SDS_P1;SDS_P2;PMS_P1;PMS_P2;Temp;Humidity;BMP_temperature;BMP_pressure;BME280_temperature;BME280_humidity;BME280_pressure;Samples;Min_cycle;Max_cycle;Signal;HPM_P1;HPM_P2
2021/06/16 00:02:25;;;;;;;15.63;5.65;;;;;;;-145.50;100.00;65435.88;4920998;29;20052;-47
2021/06/16 00:04:52;;;;;;;16.40;5.72;;;;;;;-145.50;100.00;65435.88;4904935;29;20155;-45
2021/06/16 00:07:18;;;;;;;20.33;5.45;;;;;;;-145.50;100.00;65435.88;4921885;29;20090;-45
2021/06/16 00:09:45;;;;;;;13.65;5.68;;;;;;;-145.50;100.00;65435.88;4911770;29;20083;-45
2021/06/16 00:12:12;;;;;;;14.38;5.55;;;;;;;-145.50;100.00;65435.88;4907640;29;20232;-44
2021/06/16 00:14:38;;;;;;;20.55;5.63;;;;;;;-145.50;100.00;65435.88;4898561;29;20067;-48
2021/06/16 00:17:05;;;;;;;16.30;5.45;;;;;;;-145.50;100.00;65435.88;4921494;29;20166;-48
2021/06/16 00:19:32;;;;;;;17.00;6.05;;;;;;;-145.50;100.00;65435.88;4926016;29;20515;-46
2021/06/16 00:22:00;;;;;;;13.85;5.22;;;;;;;-145.50;100.00;65435.88;4913891;29;20151;-45
2021/06/16 00:24:27;;;;;;;23.23;5.88;;;;;;;-145.50;100.00;65435.88;4923822;29;20122;-46
2021/06/16 00:26:53;;;;;;;19.20;6.00;;;;;;;-145.50;100.00;65435.88;4916694;29;20087;-45
2021/06/16 00:29:20;;;;;;;19.20;5.93;;;;;;;-145.50;100.00;65435.88;4919134;29;20081;-45
2021/06/16 00:31:46;;;;;;;16.30;5.90;;;;;;;-145.50;100.00;65435.88;4919973;29;20139;-47
2021/06/16 00:34:13;;;;;;;21.88;6.20;;;;;;;-145.50;100.00;65435.88;4923870;29;20497;-47
2021/06/16 00:36:41;;;;;;;16.73;5.65;;;;;;;-145.50;100.00;65435.88;4918427;29;20151;-46
2021/06/16 00:39:08;;;;;;;17.75;6.40;;;;;;;-145.50;100.00;65435.88;4922816;29;20868;-46
2021/06/16 00:41:35;;;;;;;18.53;7.27;;;;;;;-145.50;100.00;65435.88;4915914;29;20142;-45
2021/06/16 00:44:03;;;;;;;20.88;6.32;;;;;;;-145.50;100.00;65435.88;4900194;29;20162;-48
2021/06/16 00:46:30;;;;;;;18.42;6.13;;;;;;;-145.50;100.00;65435.88;4923840;29;20162;-45
2021/06/16 00:48:57;;;;;;;17.83;6.43;;;;;;;-145.50;100.00;65435.88;4919835;29;20056;-45
2021/06/16 00:51:24;;;;;;;16.70;6.50;;;;;;;-145.50;100.00;65435.88;4924804;29;20047;-45
2021/06/16 00:53:50;;;;;;;13.63;6.22;;;;;;;-145.50;100.00;65435.88;4916616;29;20138;-45
2021/06/16 00:56:17;;;;;;;15.10;5.95;;;;;;;-145.50;100.00;65435.88;4921311;29;20131;-45
2021/06/16 00:58:44;;;;;;;19.83;6.38;;;;;;;-145.50;100.00;65435.88;4928950;29;20082;-45
2021/06/16 01:01:18;;;;;;;22.20;6.70;;;;;;;-145.50;100.00;65435.88;4910072;28;20060;-45
2021/06/16 01:04:05;;;;;;;17.10;6.25;;;;;;;-145.50;100.00;65435.88;4922446;29;20083;-47
2021/06/16 01:06:52;;;;;;;17.30;6.20;;;;;;;-145.50;100.00;65435.88;4915749;29;20047;-46
2021/06/16 01:09:22;;;;;;;19.55;6.05;;;;;;;-145.50;100.00;65435.88;4921234;29;20051;-45
2021/06/16 01:12:13;;;;;;;16.83;6.63;;;;;;;-145.50;100.00;65435.88;4918928;29;20241;-46
2021/06/16 01:14:47;;;;;;;33.17;7.57;;;;;;;-145.50;100.00;65435.88;4919923;29;20055;-45
2021/06/16 01:17:20;;;;;;;17.75;6.30;;;;;;;-145.50;100.00;65435.88;4903651;29;20159;-45
2021/06/16 01:19:58;;;;;;;17.98;6.15;;;;;;;-145.50;100.00;65435.88;4921989;29;20074;-45
2021/06/16 01:22:43;;;;;;;17.92;6.32;;;;;;;-145.50;100.00;65435.88;4905881;29;20155;-44
2021/06/16 01:25:36;;;;;;;21.52;6.93;;;;;;;-145.50;100.00;65435.88;4923731;29;20051;-45
2021/06/16 01:28:04;;;;;;;17.90;6.22;;;;;;;-145.50;100.00;65435.88;4909959;29;20776;-46
2021/06/16 01:30:32;;;;;;;15.80;6.63;;;;;;;-145.50;100.00;65435.88;4925148;29;20202;-44
2021/06/16 01:33:00;;;;;;;21.48;7.13;;;;;;;-145.50;100.00;65435.88;4910996;29;20056;-47
2021/06/16 01:35:29;;;;;;;19.95;7.18;;;;;;;-145.50;100.00;65435.88;4922561;29;20750;-45
2021/06/16 01:37:58;;;;;;;15.85;6.07;;;;;;;-145.50;100.00;65435.88;4909550;29;20519;-45
2021/06/16 01:40:27;;;;;;;17.48;7.18;;;;;;;-145.50;100.00;65435.88;4928877;29;20139;-45
2021/06/16 01:42:55;;;;;;;;;;;;;;;-145.50;100.00;65435.88;4926458;29;20162;-45
2021/06/16 01:45:22;;;;;;;19.08;6.72;;;;;;;-145.50;100.00;65435.88;4906377;29;20446;-45
2021/06/16 01:47:51;;;;;;;16.35;6.78;;;;;;;-145.50;100.00;65435.88;4911456;29;20079;-45
2021/06/16 01:50:20;;;;;;;21.67;6.57;;;;;;;-145.50;100.00;65435.88;4916762;29;20086;-44
2021/06/16 01:52:50;;;;;;;18.98;7.03;;;;;;;-145.50;100.00;65435.88;4913909;29;20163;-48
2021/06/16 01:55:19;;;;;;;15.80;6.72;;;;;;;-145.50;100.00;65435.88;4911342;29;20055;-47
2021/06/16 01:57:48;;;;;;;17.00;6.53;;;;;;;-145.50;100.00;65435.88;4914762;29;20531;-48
2021/06/16 02:00:16;;;;;;;16.85;6.90;;;;;;;-145.50;100.00;65435.88;4915764;29;20585;-45
2021/06/16 02:02:43;;;;;;;13.35;6.72;;;;;;;-145.50;100.00;65435.88;4917329;29;20130;-45
2021/06/16 02:05:11;;;;;;;17.55;7.28;;;;;;;-145.50;100.00;65435.88;4914760;29;20090;-46
2021/06/16 02:07:40;;;;;;;15.60;6.80;;;;;;;-145.50;100.00;65435.88;4916761;29;20205;-48
2021/06/16 02:10:09;;;;;;;20.02;7.20;;;;;;;-145.50;100.00;65435.88;4911686;29;20166;-45
2021/06/16 02:12:40;;;;;;;15.82;7.22;;;;;;;-145.50;100.00;65435.88;4917449;29;20119;-45
2021/06/16 02:15:12;;;;;;;22.95;7.10;;;;;;;-145.50;100.00;65435.88;4911016;29;20483;-46
2021/06/16 02:17:41;;;;;;;13.65;7.20;;;;;;;-145.50;100.00;65435.88;4929978;28;20135;-45
2021/06/16 02:20:08;;;;;;;24.70;8.13;;;;;;;-145.50;100.00;65435.88;4923512;29;20131;-45
2021/06/16 02:22:36;;;;;;;19.40;7.88;;;;;;;-145.50;100.00;65435.88;4916904;29;20724;-46
2021/06/16 02:25:04;;;;;;;25.58;7.72;;;;;;;-145.50;100.00;65435.88;4925519;29;20059;-46
2021/06/16 02:27:31;;;;;;;17.35;7.15;;;;;;;-145.50;100.00;65435.88;4912580;29;20151;-44
2021/06/16 02:29:57;;;;;;;18.38;7.40;;;;;;;-145.50;100.00;65435.88;4910036;29;20142;-45
2021/06/16 02:32:23;;;;;;;21.33;8.00;;;;;;;-145.50;100.00;65435.88;4914157;29;20575;-45
2021/06/16 02:34:50;;;;;;;24.17;8.20;;;;;;;-145.50;100.00;65435.88;4914706;29;20485;-45
2021/06/16 02:37:18;;;;;;;18.80;8.27;;;;;;;-145.50;100.00;65435.88;4915584;29;20456;-45
2021/06/16 02:39:54;;;;;;;20.05;7.93;;;;;;;-145.50;100.00;65435.88;4920203;29;20135;-45
2021/06/16 02:42:22;;;;;;;20.50;7.40;;;;;;;-145.50;100.00;65435.88;4911889;29;20075;-46
2021/06/16 02:44:52;;;;;;;20.67;8.00;;;;;;;-145.50;100.00;65435.88;4908574;29;20147;-46
2021/06/16 02:47:19;;;;;;;22.33;7.82;;;;;;;-145.50;100.00;65435.88;4917941;29;20704;-45
2021/06/16 02:49:58;;;;;;;21.65;7.95;;;;;;;-145.50;100.00;65435.88;4924623;29;20064;-45
2021/06/16 02:52:26;;;;;;;18.50;8.63;;;;;;;-145.50;100.00;65435.88;4922008;29;20682;-45
2021/06/16 02:54:58;;;;;;;19.50;9.20;;;;;;;-145.50;100.00;65435.88;4925638;29;20626;-48
2021/06/16 02:57:27;;;;;;;22.58;10.10;;;;;;;-145.50;100.00;65435.88;4910368;29;20293;-47
2021/06/16 02:59:54;;;;;;;26.52;10.55;;;;;;;-145.50;100.00;65435.88;4926198;29;20151;-46
2021/06/16 03:02:24;;;;;;;28.02;10.10;;;;;;;-145.50;100.00;65435.88;4901563;29;20166;-44
2021/06/16 03:04:51;;;;;;;20.95;9.75;;;;;;;-145.50;100.00;65435.88;4926954;29;20134;-46
2021/06/16 03:07:20;;;;;;;23.88;10.13;;;;;;;-145.50;100.00;65435.88;4920021;29;20051;-49
2021/06/16 03:09:48;;;;;;;27.45;9.88;;;;;;;-145.50;100.00;65435.88;4919371;29;20138;-44
2021/06/16 03:12:16;;;;;;;26.52;10.32;;;;;;;-145.50;100.00;65435.88;4922047;29;20146;-44
2021/06/16 03:14:45;;;;;;;23.60;11.40;;;;;;;-145.50;100.00;65435.88;4920995;29;20181;-46
2021/06/16 03:17:12;;;;;;;;;;;;;;;-145.50;100.00;65435.88;4926822;29;20142;-45
2021/06/16 03:19:39;;;;;;;25.30;10.70;;;;;;;-145.50;100.00;65435.88;4919789;29;20029;-46
2021/06/16 03:22:08;;;;;;;18.55;10.25;;;;;;;-145.50;100.00;65435.88;4925990;29;20171;-45
2021/06/16 03:24:37;;;;;;;28.08;10.85;;;;;;;-145.50;100.00;65435.88;4915785;29;20083;-45
2021/06/16 03:27:04;;;;;;;23.02;10.25;;;;;;;-145.50;100.00;65435.88;4923427;29;20558;-48
2021/06/16 03:29:33;;;;;;;26.20;9.32;;;;;;;-145.50;100.00;65435.88;4923601;29;20480;-46
2021/06/16 03:32:00;;;;;;;;;;;;;;;-145.50;100.00;65435.88;4925676;29;20060;-46
2021/06/16 03:34:27;;;;;;;22.70;9.57;;;;;;;-145.50;100.00;65435.88;4926368;29;20402;-48
2021/06/16 03:36:58;;;;;;;24.02;10.35;;;;;;;-145.50;100.00;65435.88;4915860;29;20143;-45
2021/06/16 03:39:26;;;;;;;18.63;9.52;;;;;;;-145.50;100.00;65435.88;4921288;29;20079;-46
2021/06/16 03:41:53;;;;;;;25.58;10.95;;;;;;;-145.50;100.00;65435.88;4919085;29;20083;-48
2021/06/16 03:44:22;;;;;;;20.52;9.55;;;;;;;-145.50;100.00;65435.88;4909013;29;20134;-44
2021/06/16 03:46:51;;;;;;;19.33;8.98;;;;;;;-145.50;100.00;65435.88;4920567;29;20661;-44
2021/06/16 03:49:19;;;;;;;22.90;9.75;;;;;;;-145.50;100.00;65435.88;4921590;29;20055;-45
2021/06/16 03:51:47;;;;;;;22.77;9.93;;;;;;;-145.50;100.00;65435.88;4918274;29;20087;-47
2021/06/16 03:54:15;;;;;;;24.23;9.30;;;;;;;-145.50;100.00;65435.88;4916012;29;20557;-46
2021/06/16 03:56:42;;;;;;;20.42;9.43;;;;;;;-145.50;100.00;65435.88;4899016;29;20079;-46
2021/06/16 03:59:10;;;;;;;22.70;9.90;;;;;;;-145.50;100.00;65435.88;4917969;29;20143;-46
2021/06/16 04:01:40;;;;;;;20.38;9.80;;;;;;;-145.50;100.00;65435.88;4919811;29;20115;-44
2021/06/16 04:04:10;;;;;;;21.25;9.75;;;;;;;-145.50;100.00;65435.88;4912023;29;20055;-44
2021/06/16 04:06:45;;;;;;;26.53;10.60;;;;;;;-145.50;100.00;65435.88;4904068;29;20150;-44
2021/06/16 04:09:13;;;;;;;24.13;9.80;;;;;;;-145.50;100.00;65435.88;4917714;29;20155;-44
2021/06/16 04:11:41;;;;;;;20.80;10.32;;;;;;;-145.50;100.00;65435.88;4921406;29;20048;-45
2021/06/16 04:14:08;;;;;;;23.92;9.18;;;;;;;-145.50;100.00;65435.88;4922304;29;20476;-45
2021/06/16 04:16:34;;;;;;;27.73;10.27;;;;;;;-145.50;100.00;65435.88;4909197;29;20069;-46
2021/06/16 04:19:01;;;;;;;19.30;9.25;;;;;;;-145.50;100.00;65435.88;4923258;29;20492;-45
2021/06/16 04:21:28;;;;;;;28.70;9.45;;;;;;;-145.50;100.00;65435.88;4915337;29;20091;-44
2021/06/16 04:23:54;;;;;;;22.05;10.02;;;;;;;-145.50;100.00;65435.88;4924879;29;20151;-45
2021/06/16 04:26:22;;;;;;;28.17;10.30;;;;;;;-145.50;100.00;65435.88;4918971;29;20083;-44
2021/06/16 04:28:49;;;;;;;20.35;10.32;;;;;;;-145.50;100.00;65435.88;4925200;29;20519;-45
2021/06/16 04:31:15;;;;;;;23.65;9.27;;;;;;;-145.50;100.00;65435.88;4925276;29;20051;-45
2021/06/16 04:33:42;;;;;;;25.58;10.23;;;;;;;-145.50;100.00;65435.88;4914784;29;20058;-50
2021/06/16 04:36:09;;;;;;;22.67;10.82;;;;;;;-145.50;100.00;65435.88;4904364;29;20237;-46
2021/06/16 04:38:35;;;;;;;21.48;10.15;;;;;;;-145.50;100.00;65435.88;4919711;29;20131;-47
2021/06/16 04:41:03;;;;;;;36.75;10.52;;;;;;;-145.50;100.00;65435.88;4925409;29;20055;-47
2021/06/16 04:43:30;;;;;;;24.50;10.18;;;;;;;-145.50;100.00;65435.88;4917499;29;20047;-50
2021/06/16 04:45:56;;;;;;;23.67;11.23;;;;;;;-145.50;100.00;65435.88;4925631;29;20058;-45
2021/06/16 04:48:23;;;;;;;27.95;10.52;;;;;;;-145.50;100.00;65435.88;4919610;29;20068;-44
2021/06/16 04:50:49;;;;;;;23.40;11.63;;;;;;;-145.50;100.00;65435.88;4910204;29;20496;-48
2021/06/16 04:53:16;;;;;;;28.50;11.32;;;;;;;-145.50;100.00;65435.88;4921314;29;20573;-44
2021/06/16 04:55:42;;;;;;;29.17;11.27;;;;;;;-145.50;100.00;65435.88;4915844;29;20138;-47
2021/06/16 04:58:09;;;;;;;28.27;10.68;;;;;;;-145.50;100.00;65435.88;4925956;29;20087;-44
2021/06/16 05:00:35;;;;;;;21.63;11.20;;;;;;;-145.50;100.00;65435.88;4910819;29;20079;-46
2021/06/16 05:03:02;;;;;;;25.55;12.02;;;;;;;-145.50;100.00;65435.88;4903011;29;20168;-44
2021/06/16 05:05:29;;;;;;;27.00;11.85;;;;;;;-145.50;100.00;65435.88;4907431;29;20183;-46
2021/06/16 05:07:56;;;;;;;21.63;10.02;;;;;;;-145.50;100.00;65435.88;4929714;29;20146;-46
2021/06/16 05:10:22;;;;;;;28.77;11.43;;;;;;;-145.50;100.00;65435.88;4904326;29;20083;-47
2021/06/16 05:12:49;;;;;;;18.35;10.35;;;;;;;-145.50;100.00;65435.88;4918650;29;20115;-44
2021/06/16 05:15:16;;;;;;;21.48;10.55;;;;;;;-145.50;100.00;65435.88;4908066;29;20048;-47
2021/06/16 05:17:43;;;;;;;20.17;11.27;;;;;;;-145.50;100.00;65435.88;4919947;29;20087;-47
2021/06/16 05:20:12;;;;;;;20.38;9.07;;;;;;;-145.50;100.00;65435.88;4921702;29;20060;-46
2021/06/16 05:22:40;;;;;;;18.05;10.65;;;;;;;-145.50;100.00;65435.88;4921935;29;20056;-48
2021/06/16 05:25:09;;;;;;;20.10;10.77;;;;;;;-145.50;100.00;65435.88;4924272;29;20126;-46
2021/06/16 05:27:36;;;;;;;22.00;9.93;;;;;;;-145.50;100.00;65435.88;4911778;29;20325;-48
2021/06/16 05:30:05;;;;;;;15.27;9.25;;;;;;;-145.50;100.00;65435.88;4916292;29;20237;-45
2021/06/16 05:32:33;;;;;;;20.55;9.95;;;;;;;-145.50;100.00;65435.88;4909547;29;20087;-47
2021/06/16 05:34:59;;;;;;;25.67;9.88;;;;;;;-145.50;100.00;65435.88;4907184;29;20131;-47
2021/06/16 05:37:26;;;;;;;28.63;10.73;;;;;;;-145.50;100.00;65435.88;4907627;29;20111;-45
2021/06/16 05:39:53;;;;;;;19.58;9.82;;;;;;;-145.50;100.00;65435.88;4925204;29;20091;-45
2021/06/16 05:42:19;;;;;;;20.77;10.38;;;;;;;-145.50;100.00;65435.88;4929933;29;20135;-45
2021/06/16 05:44:46;;;;;;;18.80;9.82;;;;;;;-145.50;100.00;65435.88;4902787;29;20151;-45
2021/06/16 05:47:12;;;;;;;18.90;9.40;;;;;;;-145.50;100.00;65435.88;4919194;29;20150;-45
2021/06/16 05:49:39;;;;;;;22.73;10.20;;;;;;;-145.50;100.00;65435.88;4929217;29;20118;-46
2021/06/16 05:52:06;;;;;;;21.00;10.25;;;;;;;-145.50;100.00;65435.88;4906287;29;20100;-45
2021/06/16 05:54:32;;;;;;;20.73;10.65;;;;;;;-145.50;100.00;65435.88;4925163;29;20130;-45
2021/06/16 05:56:59;;;;;;;28.23;16.05;;;;;;;-145.50;100.00;65435.88;4903626;29;20115;-45
2021/06/16 05:59:25;;;;;;;24.02;12.30;;;;;;;-145.50;100.00;65435.88;4912858;29;20135;-45
2021/06/16 06:01:52;;;;;;;20.27;10.75;;;;;;;-145.50;100.00;65435.88;4907934;29;20143;-46
2021/06/16 06:04:18;;;;;;;18.52;9.90;;;;;;;-145.50;100.00;65435.88;4912999;29;20064;-45
2021/06/16 06:06:45;;;;;;;22.35;11.38;;;;;;;-145.50;100.00;65435.88;4921582;29;20162;-47
2021/06/16 06:09:12;;;;;;;23.95;10.55;;;;;;;-145.50;100.00;65435.88;4913435;29;20793;-46
2021/06/16 06:11:38;;;;;;;21.73;10.35;;;;;;;-145.50;100.00;65435.88;4914332;29;21006;-46
2021/06/16 06:14:05;;;;;;;24.35;12.00;;;;;;;-145.50;100.00;65435.88;4920316;29;20159;-47
2021/06/16 06:16:33;;;;;;;17.90;10.57;;;;;;;-145.50;100.00;65435.88;4912715;29;20482;-45
2021/06/16 06:19:00;;;;;;;18.15;11.00;;;;;;;-145.50;100.00;65435.88;4914575;29;20060;-45
2021/06/16 06:21:32;;;;;;;19.90;10.90;;;;;;;-145.50;100.00;65435.88;4927773;29;20134;-45
2021/06/16 06:24:00;;;;;;;18.13;9.93;;;;;;;-145.50;100.00;65435.88;4915653;28;20099;-45
2021/06/16 06:26:30;;;;;;;25.38;11.50;;;;;;;-145.50;100.00;65435.88;4922757;29;20047;-47
2021/06/16 06:28:57;;;;;;;18.42;11.10;;;;;;;-145.50;100.00;65435.88;4914143;29;20059;-45
2021/06/16 06:31:23;;;;;;;25.20;11.23;;;;;;;-145.50;100.00;65435.88;4922734;29;20170;-45
2021/06/16 06:33:50;;;;;;;22.67;12.23;;;;;;;-145.50;100.00;65435.88;4924820;29;20167;-49
2021/06/16 06:36:17;;;;;;;20.83;10.32;;;;;;;-145.50;100.00;65435.88;4919784;29;20762;-46
2021/06/16 06:38:44;;;;;;;26.08;11.40;;;;;;;-145.50;100.00;65435.88;4922454;29;20083;-45
2021/06/16 06:41:12;;;;;;;18.52;11.07;;;;;;;-145.50;100.00;65435.88;4916675;29;20175;-48
2021/06/16 06:43:39;;;;;;;21.98;11.68;;;;;;;-145.50;100.00;65435.88;4926611;29;20147;-46
2021/06/16 06:46:06;;;;;;;20.20;11.15;;;;;;;-145.50;100.00;65435.88;4921851;29;20047;-45
2021/06/16 06:48:33;;;;;;;20.05;11.32;;;;;;;-145.50;100.00;65435.88;4927397;29;20138;-46
2021/06/16 06:50:59;;;;;;;19.77;11.85;;;;;;;-145.50;100.00;65435.88;4912585;29;20555;-47
2021/06/16 06:53:29;;;;;;;19.90;11.65;;;;;;;-145.50;100.00;65435.88;4907302;29;20055;-47
2021/06/16 06:55:56;;;;;;;16.92;11.90;;;;;;;-145.50;100.00;65435.88;4903076;29;20178;-45
2021/06/16 06:58:23;;;;;;;15.23;11.32;;;;;;;-145.50;100.00;65435.88;4913545;29;20777;-46
2021/06/16 07:00:50;;;;;;;21.98;12.02;;;;;;;-145.50;100.00;65435.88;4927534;29;20769;-46
2021/06/16 07:03:17;;;;;;;19.20;11.38;;;;;;;-145.50;100.00;65435.88;4920978;29;20158;-47
2021/06/16 07:05:43;;;;;;;21.63;10.63;;;;;;;-145.50;100.00;65435.88;4917567;29;20591;-45
2021/06/16 07:08:10;;;;;;;21.15;11.00;;;;;;;-145.50;100.00;65435.88;4911530;29;20868;-46
2021/06/16 07:10:36;;;;;;;19.38;11.07;;;;;;;-145.50;100.00;65435.88;4925894;29;20072;-46
2021/06/16 07:13:04;;;;;;;17.70;10.77;;;;;;;-145.50;100.00;65435.88;4926634;29;20174;-46
2021/06/16 07:15:31;;;;;;;20.25;11.15;;;;;;;-145.50;100.00;65435.88;4907828;29;20143;-45
2021/06/16 07:17:58;;;;;;;20.92;10.63;;;;;;;-145.50;100.00;65435.88;4920095;29;20565;-46
2021/06/16 07:20:25;;;;;;;22.10;10.65;;;;;;;-145.50;100.00;65435.88;4900254;29;20055;-46
2021/06/16 07:22:53;;;;;;;14.18;10.43;;;;;;;-145.50;100.00;65435.88;4916311;29;20899;-46
2021/06/16 07:25:20;;;;;;;16.33;10.82;;;;;;;-145.50;100.00;65435.88;4912898;29;20935;-46
2021/06/16 07:27:47;;;;;;;24.05;10.98;;;;;;;-145.50;100.00;65435.88;4919709;29;20103;-47
2021/06/16 07:30:14;;;;;;;17.77;10.32;;;;;;;-145.50;100.00;65435.88;4918356;29;20059;-46
2021/06/16 07:32:41;;;;;;;13.93;8.45;;;;;;;-145.50;100.00;65435.88;4918583;29;20118;-46
2021/06/16 07:35:09;;;;;;;15.40;8.77;;;;;;;-145.50;100.00;65435.88;4922842;29;20079;-48
2021/06/16 07:37:42;;;;;;;17.33;8.63;;;;;;;-145.50;100.00;65435.88;4910912;29;20776;-46
2021/06/16 07:40:10;;;;;;;12.77;7.35;;;;;;;-145.50;100.00;65435.88;4928019;29;20228;-46
2021/06/16 07:42:39;;;;;;;18.35;7.68;;;;;;;-145.50;100.00;65435.88;4914271;29;20063;-46
2021/06/16 07:45:07;;;;;;;16.25;7.35;;;;;;;-145.50;100.00;65435.88;4913554;29;20768;-45
2021/06/16 07:47:33;;;;;;;14.38;6.95;;;;;;;-145.50;100.00;65435.88;4914433;29;20143;-45
2021/06/16 07:50:00;;;;;;;12.50;6.63;;;;;;;-145.50;100.00;65435.88;4920058;29;20159;-47
2021/06/16 07:52:28;;;;;;;12.25;5.95;;;;;;;-145.50;100.00;65435.88;4911359;29;20146;-50
2021/06/16 07:54:55;;;;;;;11.55;7.07;;;;;;;-145.50;100.00;65435.88;4917345;29;20142;-50
2021/06/16 07:57:21;;;;;;;15.15;6.05;;;;;;;-145.50;100.00;65435.88;4925442;29;20478;-46
2021/06/16 07:59:47;;;;;;;14.52;6.40;;;;;;;-145.50;100.00;65435.88;4919788;29;20134;-47
2021/06/16 08:02:14;;;;;;;13.88;5.78;;;;;;;-145.50;100.00;65435.88;4905087;29;20146;-49
2021/06/16 08:04:42;;;;;;;16.20;5.97;;;;;;;-145.50;100.00;65435.88;4910745;29;20566;-47
2021/06/16 08:07:11;;;;;;;11.23;5.43;;;;;;;-145.50;100.00;65435.88;4925655;29;20260;-47
2021/06/16 08:09:42;;;;;;;14.40;6.70;;;;;;;-145.50;100.00;65435.88;4915312;29;20087;-47
2021/06/16 08:12:10;;;;;;;12.98;7.40;;;;;;;-145.50;100.00;65435.88;4919553;29;20456;-47
2021/06/16 08:14:37;;;;;;;12.38;6.60;;;;;;;-145.50;100.00;65435.88;4923148;29;20103;-48
2021/06/16 08:17:05;;;;;;;13.95;6.47;;;;;;;-145.50;100.00;65435.88;4910607;29;20087;-47
2021/06/16 08:19:34;;;;;;;11.85;5.70;;;;;;;-145.50;100.00;65435.88;4918116;29;20650;-48
2021/06/16 08:22:01;;;;;;;11.48;6.03;;;;;;;-145.50;100.00;65435.88;4914593;29;20112;-48
2021/06/16 08:24:27;;;;;;;14.70;6.43;;;;;;;-145.50;100.00;65435.88;4924293;29;20243;-46
2021/06/16 08:26:54;;;;;;;13.40;6.57;;;;;;;-145.50;100.00;65435.88;4918897;29;20059;-48
2021/06/16 08:29:21;;;;;;;15.77;5.47;;;;;;;-145.50;100.00;65435.88;4920287;29;20146;-46
2021/06/16 08:31:48;;;;;;;21.10;5.80;;;;;;;-145.50;100.00;65435.88;4908551;29;20150;-47
2021/06/16 08:34:15;;;;;;;12.40;5.35;;;;;;;-145.50;100.00;65435.88;4912745;29;20865;-48
2021/06/16 08:36:44;;;;;;;11.88;5.25;;;;;;;-145.50;100.00;65435.88;4925761;29;20043;-47
2021/06/16 08:39:19;;;;;;;11.65;5.20;;;;;;;-145.50;100.00;65435.88;4898311;29;20063;-47
2021/06/16 08:41:47;;;;;;;11.35;5.43;;;;;;;-145.50;100.00;65435.88;4925135;29;20139;-47
2021/06/16 08:44:14;;;;;;;12.95;5.47;;;;;;;-145.50;100.00;65435.88;4906426;29;20166;-52
2021/06/16 08:46:41;;;;;;;10.18;5.60;;;;;;;-145.50;100.00;65435.88;4913876;29;20051;-50
2021/06/16 08:49:09;;;;;;;12.20;5.90;;;;;;;-145.50;100.00;65435.88;4907625;29;20059;-48
2021/06/16 08:51:36;;;;;;;10.37;5.80;;;;;;;-145.50;100.00;65435.88;4914205;29;20344;-49
2021/06/16 08:54:05;;;;;;;10.03;5.40;;;;;;;-145.50;100.00;65435.88;4919908;29;20059;-47
2021/06/16 08:56:32;;;;;;;14.32;5.97;;;;;;;-145.50;100.00;65435.88;4923310;29;20753;-47
2021/06/16 08:58:59;;;;;;;8.60;5.20;;;;;;;-145.50;100.00;65435.88;4915688;29;20090;-48
2021/06/16 09:01:25;;;;;;;11.45;5.30;;;;;;;-145.50;100.00;65435.88;4900394;29;20142;-49
2021/06/16 09:03:52;;;;;;;14.32;5.07;;;;;;;-145.50;100.00;65435.88;4918994;29;20052;-48
2021/06/16 09:06:19;;;;;;;12.55;5.65;;;;;;;-145.50;100.00;65435.88;4909643;29;20143;-48
2021/06/16 09:08:52;;;;;;;12.20;5.53;;;;;;;-145.50;100.00;65435.88;4919568;29;20138;-49
2021/06/16 09:11:25;;;;;;;14.18;5.80;;;;;;;-145.50;100.00;65435.88;4910809;29;20152;-49
2021/06/16 09:14:10;;;;;;;12.85;5.78;;;;;;;-145.50;100.00;65435.88;4917342;29;20884;-48
2021/06/16 09:16:36;;;;;;;9.15;4.68;;;;;;;-145.50;100.00;65435.88;4925445;28;20081;-49
2021/06/16 09:19:19;;;;;;;13.40;5.65;;;;;;;-145.50;100.00;65435.88;4918914;29;20533;-50
2021/06/16 09:21:47;;;;;;;13.23;5.55;;;;;;;-145.50;100.00;65435.88;4916502;29;20103;-48
2021/06/16 09:24:14;;;;;;;13.35;5.55;;;;;;;-145.50;100.00;65435.88;4918396;29;20582;-49
2021/06/16 09:26:43;;;;;;;12.73;5.00;;;;;;;-145.50;100.00;65435.88;4921530;29;20048;-49
2021/06/16 09:29:10;;;;;;;12.55;5.07;;;;;;;-145.50;100.00;65435.88;4916777;29;20154;-48
2021/06/16 09:31:43;;;;;;;10.27;5.22;;;;;;;-145.50;100.00;65435.88;4925293;29;20354;-48
2021/06/16 09:34:16;;;;;;;18.05;8.80;;;;;;;-145.50;100.00;65435.88;4918632;29;20547;-48
2021/06/16 09:36:53;;;;;;;12.88;5.93;;;;;;;-145.50;100.00;65435.88;4919147;29;20851;-49
2021/06/16 09:39:26;;;;;;;12.07;5.05;;;;;;;-145.50;100.00;65435.88;4903586;29;20139;-50
2021/06/16 09:41:55;;;;;;;13.70;5.20;;;;;;;-145.50;100.00;65435.88;4919206;29;20098;-50
2021/06/16 09:44:48;;;;;;;12.52;4.90;;;;;;;-145.50;100.00;65435.88;4914119;29;20110;-48
2021/06/16 09:47:18;;;;;;;9.70;4.75;;;;;;;-145.50;100.00;65435.88;4920177;29;20135;-51
2021/06/16 09:49:49;;;;;;;10.02;4.53;;;;;;;-145.50;100.00;65435.88;4915444;28;20568;-48
2021/06/16 09:52:27;;;;;;;11.63;4.82;;;;;;;-145.50;100.00;65435.88;4920418;29;20055;-51
2021/06/16 09:54:53;;;;;;;9.45;4.78;;;;;;;-145.50;100.00;65435.88;4915397;29;20083;-48
2021/06/16 09:57:20;;;;;;;10.80;5.03;;;;;;;-145.50;100.00;65435.88;4918873;29;20142;-49
2021/06/16 09:59:46;;;;;;;8.90;5.43;;;;;;;-145.50;100.00;65435.88;4922916;29;20135;-51
2021/06/16 10:02:24;;;;;;;13.38;5.15;;;;;;;-145.50;100.00;65435.88;4922095;29;20256;-48
2021/06/16 10:04:59;;;;;;;8.35;4.93;;;;;;;-145.50;100.00;65435.88;4920450;29;20055;-49
2021/06/16 10:07:27;;;;;;;8.88;4.70;;;;;;;-145.50;100.00;65435.88;4908684;29;20096;-49
2021/06/16 10:09:55;;;;;;;10.98;4.82;;;;;;;-145.50;100.00;65435.88;4917812;29;20151;-51
2021/06/16 10:12:23;;;;;;;12.88;5.32;;;;;;;-145.50;100.00;65435.88;4914811;29;20158;-49
2021/06/16 10:14:51;;;;;;;10.73;5.10;;;;;;;-145.50;100.00;65435.88;4920788;29;20091;-52
2021/06/16 10:17:17;;;;;;;12.20;4.90;;;;;;;-145.50;100.00;65435.88;4913173;29;20501;-53
2021/06/16 10:19:46;;;;;;;10.98;5.57;;;;;;;-145.50;100.00;65435.88;4921504;29;20133;-48
2021/06/16 10:22:13;;;;;;;10.00;5.50;;;;;;;-145.50;100.00;65435.88;4922291;29;20087;-51
2021/06/16 10:24:40;;;;;;;12.20;5.47;;;;;;;-145.50;100.00;65435.88;4924007;29;20137;-48
2021/06/16 10:27:13;;;;;;;14.52;8.70;;;;;;;-145.50;100.00;65435.88;4929432;29;20810;-51
2021/06/16 10:29:43;;;;;;;10.65;5.70;;;;;;;-145.50;100.00;65435.88;4906550;29;20087;-48
2021/06/16 10:32:13;;;;;;;9.57;5.30;;;;;;;-145.50;100.00;65435.88;4920803;29;20052;-46
2021/06/16 10:34:51;;;;;;;12.63;6.57;;;;;;;-145.50;100.00;65435.88;4919386;29;20054;-46
2021/06/16 10:37:27;;;;;;;17.73;6.50;;;;;;;-145.50;100.00;65435.88;4928701;29;20115;-46
2021/06/16 10:40:12;;;;;;;11.90;5.22;;;;;;;-145.50;100.00;65435.88;4922601;29;20135;-47
2021/06/16 10:42:59;;;;;;;11.85;5.60;;;;;;;-145.50;100.00;65435.88;4911220;29;20111;-46
2021/06/16 10:45:37;;;;;;;13.63;6.50;;;;;;;-145.50;100.00;65435.88;4909981;29;20913;-48
2021/06/16 10:48:07;;;;;;;10.35;6.05;;;;;;;-145.50;100.00;65435.88;4905179;29;20127;-49
2021/06/16 10:50:45;;;;;;;9.93;6.38;;;;;;;-145.50;100.00;65435.88;4920616;29;20091;-46
2021/06/16 10:53:24;;;;;;;8.88;6.13;;;;;;;-145.50;100.00;65435.88;4915655;29;20151;-46
2021/06/16 10:55:57;;;;;;;11.23;6.07;;;;;;;-145.50;100.00;65435.88;4919245;29;20123;-45
2021/06/16 10:58:43;;;;;;;11.93;6.78;;;;;;;-145.50;100.00;65435.88;4922374;29;20481;-45
2021/06/16 11:01:19;;;;;;;14.33;6.43;;;;;;;-145.50;100.00;65435.88;4920202;29;20147;-51
2021/06/16 11:03:51;;;;;;;12.98;6.32;;;;;;;-145.50;100.00;65435.88;4922115;29;20130;-47
2021/06/16 11:06:33;;;;;;;12.30;6.68;;;;;;;-145.50;100.00;65435.88;4927247;29;20069;-47
2021/06/16 11:09:02;;;;;;;24.83;17.75;;;;;;;-145.50;100.00;65435.88;4913991;29;20115;-44